Time;durP1;ratioP1;P1;durP2;ratioP2;P2;SDS_P1;SDS_P2;PMS_P1;PMS_P2;Temp;Humidity;BMP_temperature;BMP_pressure;BME280_temperature;BME280_humidity;BME280_pressure;Samples;Min_cycle;Max_cycle;Signal;HPM_P1;HPM_P2
2021/08/25 00:01:09;;;;;;;11.10;9.17;;;;;;;;;;5036646;28;20416;-71
2021/08/25 00:03:36;;;;;;;10.33;8.43;;;;;;;;;;5054226;28;20416;-74
2021/08/25 00:06:02;;;;;;;11.90;9.33;;;;;;;;;;5053911;28;20487;-73
2021/08/25 00:08:28;;;;;;;11.00;8.83;;;;;;;;;;5053663;28;20412;-73
2021/08/25 00:10:54;;;;;;;12.03;8.50;;;;;;;;;;5050746;28;20413;-72
2021/08/25 00:13:20;;;;;;;14.68;9.55;;;;;;;;;;5034047;28;20407;-74
2021/08/25 00:15:46;;;;;;;13.57;9.40;;;;;;;;;;5036347;28;20225;-72
2021/08/25 00:18:13;;;;;;;11.50;9.00;;;;;;;;;;5035314;28;20419;-72
2021/08/25 00:20:39;;;;;;;10.90;8.65;;;;;;;;;;5040394;28;20518;-72
2021/08/25 00:23:05;;;;;;;12.63;9.55;;;;;;;;;;5046163;28;20220;-74
2021/08/25 00:25:32;;;;;;;13.30;10.30;;;;;;;;;;5042078;28;20205;-67
2021/08/25 00:27:58;;;;;;;13.00;9.63;;;;;;;;;;5038964;28;20416;-71
2021/08/25 00:30:24;;;;;;;10.57;9.33;;;;;;;;;;5036462;28;20413;-74
2021/08/25 00:32:50;;;;;;;10.00;8.23;;;;;;;;;;5033371;28;20413;-72
2021/08/25 00:35:16;;;;;;;14.13;9.47;;;;;;;;;;5035620;28;20774;-74
2021/08/25 00:37:42;;;;;;;13.60;9.63;;;;;;;;;;5033311;28;20782;-75
2021/08/25 00:40:08;;;;;;;12.57;8.70;;;;;;;;;;5033704;28;20462;-74
2021/08/25 00:42:35;;;;;;;10.40;8.53;;;;;;;;;;5033659;28;20409;-75
2021/08/25 00:45:01;;;;;;;11.17;9.27;;;;;;;;;;5033037;28;20944;-72
2021/08/25 00:47:27;;;;;;;10.87;8.80;;;;;;;;;;5032907;28;20459;-72
2021/08/25 00:49:53;;;;;;;12.33;8.83;;;;;;;;;;5033479;28;20424;-73
2021/08/25 00:52:19;;;;;;;9.47;8.50;;;;;;;;;;5033415;28;20412;-74
2021/08/25 00:54:45;;;;;;;12.52;9.00;;;;;;;;;;5033503;28;20420;-73
2021/08/25 00:57:11;;;;;;;9.40;8.13;;;;;;;;;;5043243;28;20566;-71
2021/08/25 00:59:38;;;;;;;10.90;8.73;;;;;;;;;;5031582;28;20431;-74
2021/08/25 01:02:04;;;;;;;13.30;9.07;;;;;;;;;;5033583;28;20739;-75
2021/08/25 01:04:36;;;;;;;9.67;8.23;;;;;;;;;;5033137;28;20828;-72
2021/08/25 01:07:02;;;;;;;11.30;8.30;;;;;;;;;;5043560;28;20491;-73
2021/08/25 01:09:28;;;;;;;12.90;9.30;;;;;;;;;;5052844;28;20495;-73
2021/08/25 01:11:57;;;;;;;12.43;8.90;;;;;;;;;;5041584;28;20417;-72
2021/08/25 01:14:24;;;;;;;12.07;8.57;;;;;;;;;;5031816;28;20181;-72
2021/08/25 01:16:52;;;;;;;11.17;9.23;;;;;;;;;;5031415;28;20993;-74
2021/08/25 01:19:18;;;;;;;11.18;8.50;;;;;;;;;;5032750;28;20909;-73
2021/08/25 01:21:45;;;;;;;9.30;8.30;;;;;;;;;;5033202;28;20210;-72
2021/08/25 01:24:12;;;;;;;9.57;7.85;;;;;;;;;;5032936;28;20201;-74
2021/08/25 01:26:39;;;;;;;11.33;8.93;;;;;;;;;;5032678;28;20194;-71
2021/08/25 01:29:05;;;;;;;10.30;8.40;;;;;;;;;;5025148;28;20432;-75
2021/08/25 01:31:32;;;;;;;9.15;8.23;;;;;;;;;;5032892;28;20228;-74
2021/08/25 01:34:02;;;;;;;9.05;7.82;;;;;;;;;;5032830;28;20173;-75
2021/08/25 01:36:28;;;;;;;7.25;6.55;;;;;;;;;;5033121;28;20193;-71
2021/08/25 01:38:55;;;;;;;7.33;6.60;;;;;;;;;;5032496;28;20186;-71
2021/08/25 01:41:22;;;;;;;12.20;7.80;;;;;;;;;;5032744;28;20409;-74
2021/08/25 01:43:49;;;;;;;8.95;7.38;;;;;;;;;;5032843;28;20174;-74
2021/08/25 01:46:22;;;;;;;8.87;7.10;;;;;;;;;;5032911;28;20698;-70
2021/08/25 01:48:48;;;;;;;8.07;6.73;;;;;;;;;;5032575;28;20420;-72
2021/08/25 01:51:14;;;;;;;8.88;6.38;;;;;;;;;;5033033;28;20435;-74
2021/08/25 01:53:40;;;;;;;7.20;6.50;;;;;;;;;;5032894;28;20177;-74
2021/08/25 01:56:06;;;;;;;8.53;6.97;;;;;;;;;;5034801;28;20190;-73
2021/08/25 01:58:32;;;;;;;9.60;7.77;;;;;;;;;;5044772;28;20808;-74
2021/08/25 02:00:58;;;;;;;8.07;7.23;;;;;;;;;;5027100;28;20424;-75
2021/08/25 02:03:24;;;;;;;9.13;8.18;;;;;;;;;;5032870;28;20417;-74
2021/08/25 02:05:50;;;;;;;10.00;8.67;;;;;;;;;;5032227;28;20213;-72
2021/08/25 02:08:16;;;;;;;11.00;8.20;;;;;;;;;;5032587;28;20420;-74
2021/08/25 02:10:42;;;;;;;10.03;8.93;;;;;;;;;;5032517;28;20412;-74
2021/08/25 02:13:08;;;;;;;10.37;9.30;;;;;;;;;;5032685;28;20491;-71
2021/08/25 02:15:34;;;;;;;13.57;11.50;;;;;;;;;;5032405;28;20762;-71
2021/08/25 02:18:00;;;;;;;11.00;9.77;;;;;;;;;;5032256;28;20428;-73
2021/08/25 02:20:26;;;;;;;13.55;11.68;;;;;;;;;;5034633;28;20793;-75
2021/08/25 02:22:52;;;;;;;12.47;10.83;;;;;;;;;;5036247;28;20376;-75
2021/08/25 02:25:18;;;;;;;13.77;10.00;;;;;;;;;;5036005;28;20460;-74
2021/08/25 02:27:44;;;;;;;12.40;11.07;;;;;;;;;;5035599;28;20443;-71
2021/08/25 02:30:11;;;;;;;15.23;10.77;;;;;;;;;;5035909;28;20415;-72
2021/08/25 02:32:37;;;;;;;14.30;12.40;;;;;;;;;;5036333;28;20420;-74
2021/08/25 02:35:03;;;;;;;13.37;11.90;;;;;;;;;;5036045;28;20758;-74
2021/08/25 02:37:29;;;;;;;16.13;13.30;;;;;;;;;;5035507;28;20441;-73
2021/08/25 02:39:55;;;;;;;14.30;12.80;;;;;;;;;;5035724;28;20427;-74
2021/08/25 02:42:21;;;;;;;15.97;14.37;;;;;;;;;;5034936;28;21220;-71
2021/08/25 02:44:47;;;;;;;15.48;13.55;;;;;;;;;;5035748;28;20464;-73
2021/08/25 02:47:13;;;;;;;16.20;14.50;;;;;;;;;;5035392;28;20202;-73
2021/08/25 02:49:39;;;;;;;15.85;14.10;;;;;;;;;;5035874;28;20454;-74
2021/08/25 02:52:05;;;;;;;17.35;13.90;;;;;;;;;;5035872;28;20581;-74
2021/08/25 02:54:31;;;;;;;15.88;14.13;;;;;;;;;;5035390;28;20174;-73
2021/08/25 02:56:57;;;;;;;16.80;13.30;;;;;;;;;;5043155;28;20255;-71
2021/08/25 02:59:23;;;;;;;14.37;12.87;;;;;;;;;;5035495;28;20779;-73
2021/08/25 03:01:49;;;;;;;16.33;14.63;;;;;;;;;;5035454;28;20409;-73
2021/08/25 03:04:15;;;;;;;17.15;13.18;;;;;;;;;;5035191;28;20526;-73
2021/08/25 03:06:41;;;;;;;14.57;13.07;;;;;;;;;;5043364;28;20217;-74
2021/08/25 03:09:07;;;;;;;16.23;13.57;;;;;;;;;;5055282;28;20177;-74
2021/08/25 03:11:34;;;;;;;15.10;13.60;;;;;;;;;;5046407;28;20188;-75
2021/08/25 03:14:00;;;;;;;14.30;12.90;;;;;;;;;;5035211;28;20185;-71
2021/08/25 03:16:26;;;;;;;16.10;13.83;;;;;;;;;;5034946;28;20198;-75
2021/08/25 03:18:52;;;;;;;17.97;15.00;;;;;;;;;;5034825;28;20413;-73
2021/08/25 03:21:18;;;;;;;15.00;13.50;;;;;;;;;;5033745;28;20432;-74
2021/08/25 03:23:44;;;;;;;19.50;15.50;;;;;;;;;;5034987;28;20417;-71
2021/08/25 03:26:10;;;;;;;16.75;14.98;;;;;;;;;;5034827;28;20467;-74
2021/08/25 03:28:36;;;;;;;17.27;15.33;;;;;;;;;;5034603;28;20543;-72
2021/08/25 03:31:02;;;;;;;16.05;14.40;;;;;;;;;;5034546;28;20409;-73
2021/08/25 03:33:28;;;;;;;16.30;14.10;;;;;;;;;;5034870;28;20182;-75
2021/08/25 03:35:54;;;;;;;15.50;13.88;;;;;;;;;;5034768;28;20439;-74
2021/08/25 03:38:20;;;;;;;14.97;13.37;;;;;;;;;;5034269;28;20189;-74
2021/08/25 03:40:46;;;;;;;16.60;13.27;;;;;;;;;;5034719;28;20482;-72
2021/08/25 03:43:12;;;;;;;14.17;12.40;;;;;;;;;;5034886;28;20444;-74
2021/08/25 03:45:39;;;;;;;15.95;13.20;;;;;;;;;;5034720;28;20883;-72
2021/08/25 03:48:05;;;;;;;15.30;13.20;;;;;;;;;;5034318;28;20256;-69
2021/08/25 03:50:31;;;;;;;14.52;11.70;;;;;;;;;;5034444;28;20968;-71
2021/08/25 03:52:57;;;;;;;18.00;12.73;;;;;;;;;;5034507;28;20212;-73
2021/08/25 03:55:23;;;;;;;12.47;11.27;;;;;;;;;;5034446;28;20453;-71
2021/08/25 03:57:49;;;;;;;12.70;11.37;;;;;;;;;;5034084;28;20429;-74
2021/08/25 04:00:16;;;;;;;13.80;10.80;;;;;;;;;;5034318;28;20451;-71
2021/08/25 04:02:42;;;;;;;14.10;11.33;;;;;;;;;;5034506;28;20773;-70
2021/08/25 04:05:08;;;;;;;12.23;11.00;;;;;;;;;;5034117;28;20798;-75
2021/08/25 04:07:34;;;;;;;13.23;11.67;;;;;;;;;;5049914;28;20436;-73
2021/08/25 04:10:00;;;;;;;14.73;11.80;;;;;;;;;;5054193;28;20415;-71
2021/08/25 04:12:26;;;;;;;12.60;11.30;;;;;;;;;;5027385;28;20439;-71
2021/08/25 04:14:52;;;;;;;14.30;12.70;;;;;;;;;;5054103;28;20788;-73
2021/08/25 04:17:18;;;;;;;13.77;12.37;;;;;;;;;;5043751;28;20468;-72
2021/08/25 04:19:44;;;;;;;13.87;12.47;;;;;;;;;;5034003;28;20429;-71
2021/08/25 04:22:10;;;;;;;14.73;12.53;;;;;;;;;;5033908;28;20837;-74
2021/08/25 04:24:36;;;;;;;13.33;11.93;;;;;;;;;;5033996;28;20470;-75
2021/08/25 04:27:03;;;;;;;13.80;12.33;;;;;;;;;;5042736;28;20514;-73
2021/08/25 04:29:29;;;;;;;16.20;13.30;;;;;;;;;;5038067;28;20413;-73
2021/08/25 04:31:55;;;;;;;16.57;13.50;;;;;;;;;;5033927;28;20412;-73
2021/08/25 04:34:21;;;;;;;17.37;14.20;;;;;;;;;;5034047;28;20436;-72
2021/08/25 04:36:47;;;;;;;14.40;12.90;;;;;;;;;;5042482;28;20785;-72
2021/08/25 04:39:13;;;;;;;20.40;14.00;;;;;;;;;;5053641;28;20502;-74
2021/08/25 04:41:39;;;;;;;19.30;14.83;;;;;;;;;;5053258;28;20434;-72
2021/08/25 04:44:06;;;;;;;17.70;14.37;;;;;;;;;;5053314;28;20426;-73
2021/08/25 04:46:32;;;;;;;19.07;14.43;;;;;;;;;;5053231;28;20470;-74
2021/08/25 04:48:59;;;;;;;18.17;14.30;;;;;;;;;;5053021;28;20881;-71
2021/08/25 04:51:25;;;;;;;18.40;13.23;;;;;;;;;;5053275;28;20435;-73
2021/08/25 04:53:51;;;;;;;19.83;15.17;;;;;;;;;;5053433;28;20416;-75
2021/08/25 04:56:17;;;;;;;20.37;15.73;;;;;;;;;;5045133;28;20440;-72
2021/08/25 04:58:43;;;;;;;22.23;16.27;;;;;;;;;;5031528;28;20441;-71
2021/08/25 05:01:09;;;;;;;17.97;15.87;;;;;;;;;;5033344;28;20416;-74
2021/08/25 05:03:35;;;;;;;20.87;17.03;;;;;;;;;;5033407;28;20539;-72
2021/08/25 05:06:11;;;;;;;25.97;18.80;;;;;;;;;;5033268;28;20477;-71
2021/08/25 05:08:37;;;;;;;19.43;16.53;;;;;;;;;;5033043;28;20761;-73
2021/08/25 05:11:04;;;;;;;26.70;16.80;;;;;;;;;;5033113;28;20467;-73
2021/08/25 05:13:30;;;;;;;19.40;16.90;;;;;;;;;;5033159;28;20419;-72
2021/08/25 05:15:56;;;;;;;21.70;18.00;;;;;;;;;;5033279;28;20429;-72
2021/08/25 05:18:22;;;;;;;24.17;18.07;;;;;;;;;;5032694;28;20790;-75
2021/08/25 05:20:48;;;;;;;25.03;18.93;;;;;;;;;;5033209;28;20913;-72
2021/08/25 05:23:14;;;;;;;24.23;19.00;;;;;;;;;;5033040;28;20506;-72
2021/08/25 05:25:40;;;;;;;27.40;20.47;;;;;;;;;;5033036;28;20459;-72
2021/08/25 05:28:06;;;;;;;29.70;19.43;;;;;;;;;;5032707;28;20416;-73
2021/08/25 05:30:32;;;;;;;25.80;19.33;;;;;;;;;;5033048;28;20416;-73
2021/08/25 05:32:58;;;;;;;24.17;19.13;;;;;;;;;;5032886;28;20415;-72
2021/08/25 05:35:24;;;;;;;22.70;17.87;;;;;;;;;;5031781;28;20439;-73
2021/08/25 05:37:50;;;;;;;21.80;18.50;;;;;;;;;;5032511;28;20448;-73
2021/08/25 05:40:17;;;;;;;23.60;17.90;;;;;;;;;;5032790;28;20451;-75
2021/08/25 05:42:44;;;;;;;23.83;19.30;;;;;;;;;;5032857;28;20424;-75
2021/08/25 05:45:10;;;;;;;23.50;17.83;;;;;;;;;;5032709;28;20448;-71
2021/08/25 05:47:37;;;;;;;24.67;18.77;;;;;;;;;;5032191;28;20920;-74
2021/08/25 05:50:05;;;;;;;22.20;18.03;;;;;;;;;;5032765;28;20421;-73
2021/08/25 05:52:31;;;;;;;23.60;16.57;;;;;;;;;;5032600;28;20418;-72
2021/08/25 05:54:57;;;;;;;20.80;17.10;;;;;;;;;;5055128;28;20422;-70
2021/08/25 05:57:23;;;;;;;19.57;17.00;;;;;;;;;;5039027;28;20451;-72
2021/08/25 05:59:49;;;;;;;21.13;17.47;;;;;;;;;;5036511;28;20428;-70
2021/08/25 06:02:15;;;;;;;18.37;15.70;;;;;;;;;;5036775;28;20408;-71
2021/08/25 06:04:41;;;;;;;18.43;16.20;;;;;;;;;;5036987;28;20821;-71
2021/08/25 06:07:11;;;;;;;19.70;17.40;;;;;;;;;;5034659;28;20467;-72
2021/08/25 06:09:37;;;;;;;18.73;16.07;;;;;;;;;;5042166;28;20423;-73
2021/08/25 06:12:04;;;;;;;18.60;15.20;;;;;;;;;;5036552;28;20478;-72
2021/08/25 06:14:30;;;;;;;20.60;15.03;;;;;;;;;;5055698;28;20459;-73
2021/08/25 06:16:56;;;;;;;18.80;16.33;;;;;;;;;;5038741;28;20873;-72
2021/08/25 06:19:22;;;;;;;19.67;16.00;;;;;;;;;;5036274;28;20496;-73
2021/08/25 06:21:48;;;;;;;18.30;14.70;;;;;;;;;;5036305;28;20508;-71
2021/08/25 06:24:14;;;;;;;19.73;15.27;;;;;;;;;;5036089;28;20412;-72
2021/08/25 06:26:41;;;;;;;17.27;14.90;;;;;;;;;;5035486;28;20829;-73
2021/08/25 06:29:07;;;;;;;18.50;14.40;;;;;;;;;;5035892;28;20404;-74
2021/08/25 06:31:33;;;;;;;20.40;16.17;;;;;;;;;;5035755;28;20418;-73
2021/08/25 06:33:59;;;;;;;21.37;14.37;;;;;;;;;;5035817;28;20422;-75
2021/08/25 06:36:26;;;;;;;17.20;13.80;;;;;;;;;;5035697;28;20438;-74
2021/08/25 06:38:52;;;;;;;17.40;13.13;;;;;;;;;;5035480;28;20422;-73
2021/08/25 06:41:19;;;;;;;16.53;13.00;;;;;;;;;;5035752;28;20786;-71
2021/08/25 06:43:45;;;;;;;13.10;11.47;;;;;;;;;;5035306;28;20417;-73
2021/08/25 06:46:11;;;;;;;14.07;11.80;;;;;;;;;;5034282;28;20478;-71
2021/08/25 06:48:37;;;;;;;14.27;11.43;;;;;;;;;;5030169;28;20426;-71
2021/08/25 06:51:03;;;;;;;13.10;11.00;;;;;;;;;;5024333;28;20423;-70
2021/08/25 06:53:30;;;;;;;11.27;10.07;;;;;;;;;;5037028;28;20927;-71
2021/08/25 06:55:56;;;;;;;11.67;9.80;;;;;;;;;;5036687;28;20940;-73
2021/08/25 06:58:24;;;;;;;13.53;9.37;;;;;;;;;;5034315;28;20427;-75
2021/08/25 07:00:51;;;;;;;11.87;9.43;;;;;;;;;;5026598;28;20435;-74
2021/08/25 07:03:17;;;;;;;11.43;9.43;;;;;;;;;;5031888;28;20485;-74
2021/08/25 07:05:43;;;;;;;10.30;9.00;;;;;;;;;;5029367;28;20539;-72
2021/08/25 07:08:09;;;;;;;9.67;8.77;;;;;;;;;;5025869;28;20890;-73
2021/08/25 07:10:35;;;;;;;7.97;7.17;;;;;;;;;;5019070;28;20524;-73
2021/08/25 07:13:02;;;;;;;8.10;7.30;;;;;;;;;;5030153;28;20459;-72
2021/08/25 07:15:28;;;;;;;9.33;8.37;;;;;;;;;;5031024;28;20797;-72
2021/08/25 07:17:54;;;;;;;9.10;7.20;;;;;;;;;;5031010;28;20917;-73
2021/08/25 07:20:20;;;;;;;9.23;7.60;;;;;;;;;;5030423;28;20810;-73
2021/08/25 07:22:46;;;;;;;9.30;6.80;;;;;;;;;;5030840;28;20534;-74
2021/08/25 07:25:12;;;;;;;7.17;5.83;;;;;;;;;;5031361;28;20506;-71
2021/08/25 07:27:39;;;;;;;8.23;7.17;;;;;;;;;;5024717;28;20493;-72
2021/08/25 07:30:05;;;;;;;6.03;5.27;;;;;;;;;;5025901;28;20418;-72
2021/08/25 07:32:32;;;;;;;6.27;5.50;;;;;;;;;;5030070;28;20523;-71
2021/08/25 07:34:58;;;;;;;6.37;4.57;;;;;;;;;;5030178;28;20452;-71
2021/08/25 07:37:24;;;;;;;6.10;5.17;;;;;;;;;;5045862;28;20440;-74
2021/08/25 07:39:50;;;;;;;5.23;4.70;;;;;;;;;;5049735;28;20431;-73
2021/08/25 07:42:16;;;;;;;5.30;4.27;;;;;;;;;;5027669;28;20838;-73
2021/08/25 07:44:42;;;;;;;6.70;4.03;;;;;;;;;;5030414;28;20428;-70
2021/08/25 07:47:08;;;;;;;4.17;3.73;;;;;;;;;;5033761;28;20493;-73
2021/08/25 07:49:34;;;;;;;6.27;3.50;;;;;;;;;;5038996;28;20460;-71
2021/08/25 07:52:02;;;;;;;4.20;3.40;;;;;;;;;;5030487;28;20503;-74
2021/08/25 07:54:28;;;;;;;3.70;2.77;;;;;;;;;;5030725;28;20511;-71
2021/08/25 07:56:54;;;;;;;5.10;3.10;;;;;;;;;;5034853;28;20518;-71
2021/08/25 07:59:20;;;;;;;4.00;3.53;;;;;;;;;;5030127;28;20428;-71
2021/08/25 08:01:46;;;;;;;5.57;3.43;;;;;;;;;;5030712;28;20417;-72
2021/08/25 08:04:12;;;;;;;4.47;2.93;;;;;;;;;;5030173;28;20897;-70
2021/08/25 08:06:38;;;;;;;5.43;2.90;;;;;;;;;;5029984;28;20503;-71
2021/08/25 08:09:04;;;;;;;3.97;2.50;;;;;;;;;;5030256;28;20511;-71
2021/08/25 08:11:30;;;;;;;3.80;2.90;;;;;;;;;;5027530;28;20435;-71
2021/08/25 08:13:56;;;;;;;6.70;2.93;;;;;;;;;;5019910;28;20793;-72
2021/08/25 08:16:22;;;;;;;5.33;2.70;;;;;;;;;;5028781;28;20463;-71
2021/08/25 08:19:01;;;;;;;4.13;2.70;;;;;;;;;;5029443;28;20437;-73
2021/08/25 08:21:28;;;;;;;3.03;2.30;;;;;;;;;;5026955;28;21296;-71
2021/08/25 08:23:54;;;;;;;2.40;2.00;;;;;;;;;;5029843;28;20428;-71
2021/08/25 08:26:20;;;;;;;2.63;2.00;;;;;;;;;;5029594;28;20465;-74
2021/08/25 08:28:46;;;;;;;2.67;1.90;;;;;;;;;;5029762;28;20416;-72
2021/08/25 08:31:12;;;;;;;3.27;1.87;;;;;;;;;;5029577;28;20797;-74
2021/08/25 08:33:39;;;;;;;2.73;1.73;;;;;;;;;;5024651;28;21006;-71
2021/08/25 08:36:05;;;;;;;4.60;1.80;;;;;;;;;;5039669;28;20505;-71
2021/08/25 08:38:31;;;;;;;3.70;1.60;;;;;;;;;;5027583;28;20449;-73
2021/08/25 08:40:57;;;;;;;2.50;1.73;;;;;;;;;;5026728;28;20435;-71
2021/08/25 08:43:23;;;;;;;2.20;1.57;;;;;;;;;;5024272;28;20921;-72
2021/08/25 08:45:49;;;;;;;2.17;1.57;;;;;;;;;;5041325;28;20505;-74
2021/08/25 08:48:16;;;;;;;2.90;1.70;;;;;;;;;;5030973;28;20443;-73
2021/08/25 08:50:45;;;;;;;2.70;1.60;;;;;;;;;;5022546;28;20478;-72
2021/08/25 08:53:12;;;;;;;2.10;1.40;;;;;;;;;;5035132;28;20431;-72
2021/08/25 08:55:38;;;;;;;2.00;1.43;;;;;;;;;;5043072;28;20481;-71
2021/08/25 08:58:05;;;;;;;2.30;1.53;;;;;;;;;;5023079;28;20434;-71
2021/08/25 09:00:31;;;;;;;2.23;1.53;;;;;;;;;;5029335;28;20424;-74
2021/08/25 09:02:57;;;;;;;2.47;1.70;;;;;;;;;;5028928;28;20568;-73
2021/08/25 09:05:28;;;;;;;2.10;1.20;;;;;;;;;;5029195;28;20658;-73
2021/08/25 09:07:58;;;;;;;2.20;1.20;;;;;;;;;;5028506;28;20460;-75
2021/08/25 09:10:27;;;;;;;1.90;1.30;;;;;;;;;;5029275;28;20417;-71
2021/08/25 09:12:58;;;;;;;2.30;1.40;;;;;;;;;;5029234;28;20463;-74
2021/08/25 09:15:25;;;;;;;2.00;1.37;;;;;;;;;;5025362;28;20433;-73
2021/08/25 09:18:05;;;;;;;2.23;1.70;;;;;;;;;;5028806;28;20436;-71
2021/08/25 09:20:39;;;;;;;2.53;1.33;;;;;;;;;;5028781;28;20525;-73
2021/08/25 09:23:07;;;;;;;2.67;1.30;;;;;;;;;;5028630;28;20440;-73
2021/08/25 09:25:34;;;;;;;1.93;0.93;;;;;;;;;;5027440;28;20460;-72
2021/08/25 09:28:00;;;;;;;1.90;1.00;;;;;;;;;;5029110;28;20432;-70
2021/08/25 09:30:26;;;;;;;2.20;1.20;;;;;;;;;;5035411;28;20423;-71
2021/08/25 09:32:52;;;;;;;2.20;0.90;;;;;;;;;;5035767;28;20422;-73
2021/08/25 09:35:18;;;;;;;2.10;1.10;;;;;;;;;;5035944;28;20970;-71
2021/08/25 09:37:56;;;;;;;2.00;1.20;;;;;;;;;;5035561;28;20868;-71
2021/08/25 09:40:22;;;;;;;2.00;1.10;;;;;;;;;;5031222;28;20422;-74
2021/08/25 09:42:48;;;;;;;1.87;1.13;;;;;;;;;;5037170;28;20440;-74
2021/08/25 09:45:16;;;;;;;1.83;1.20;;;;;;;;;;5035325;28;20474;-74
2021/08/25 09:47:46;;;;;;;2.50;1.37;;;;;;;;;;5033872;28;20482;-74
2021/08/25 09:50:15;;;;;;;4.27;1.17;;;;;;;;;;5031931;28;20786;-71
2021/08/25 09:52:42;;;;;;;2.13;1.30;;;;;;;;;;5028026;28;20527;-73
2021/08/25 09:55:08;;;;;;;2.03;1.20;;;;;;;;;;5035564;28;20416;-73
2021/08/25 09:57:35;;;;;;;2.63;1.37;;;;;;;;;;5036670;28;20459;-72
2021/08/25 10:00:01;;;;;;;3.17;1.40;;;;;;;;;;5050174;28;20919;-74
2021/08/25 10:02:27;;;;;;;2.23;1.20;;;;;;;;;;5047082;28;20436;-74
2021/08/25 10:04:54;;;;;;;2.10;1.20;;;;;;;;;;5035046;28;20468;-74
2021/08/25 10:07:20;;;;;;;2.60;1.33;;;;;;;;;;5035077;28;20531;-73
2021/08/25 10:09:46;;;;;;;2.50;1.20;;;;;;;;;;5035533;28;20747;-73
2021/08/25 10:12:13;;;;;;;1.90;1.30;;;;;;;;;;5028130;28;20524;-72
2021/08/25 10:14:39;;;;;;;2.10;1.40;;;;;;;;;;5042131;28;20417;-72
2021/08/25 10:17:05;;;;;;;2.20;1.60;;;;;;;;;;5043240;28;20973;-74
2021/08/25 10:19:39;;;;;;;2.40;1.40;;;;;;;;;;5026484;28;20412;-74
2021/08/25 10:22:14;;;;;;;2.90;1.50;;;;;;;;;;5023025;28;20980;-74
2021/08/25 10:25:07;;;;;;;2.93;1.33;;;;;;;;;;5034733;28;20434;-74
2021/08/25 10:27:34;;;;;;;2.50;1.47;;;;;;;;;;5032983;28;21138;-72
2021/08/25 10:30:03;;;;;;;5.07;2.10;;;;;;;;;;5035112;28;21234;-72
2021/08/25 10:32:30;;;;;;;3.13;1.60;;;;;;;;;;5035185;28;20965;-75
2021/08/25 10:35:14;;;;;;;1.97;1.30;;;;;;;;;;5032257;28;20433;-72
2021/08/25 10:37:40;;;;;;;2.00;1.13;;;;;;;;;;5039578;28;20508;-73
2021/08/25 10:40:07;;;;;;;2.00;1.20;;;;;;;;;;5032670;28;20420;-74
2021/08/25 10:42:47;;;;;;;2.30;1.20;;;;;;;;;;5038616;28;20431;-71
2021/08/25 10:45:14;;;;;;;3.80;1.50;;;;;;;;;;5032058;28;20470;-71
2021/08/25 10:47:59;;;;;;;2.07;1.27;;;;;;;;;;5026063;28;20448;-72
2021/08/25 10:50:45;;;;;;;6.67;1.60;;;;;;;;;;5032151;28;20531;-74
2021/08/25 10:53:29;;;;;;;3.13;1.40;;;;;;;;;;5031892;28;20474;-73
2021/08/25 10:56:04;;;;;;;2.83;1.50;;;;;;;;;;5036351;28;20434;-72
2021/08/25 10:58:47;;;;;;;3.70;1.40;;;;;;;;;;5027172;28;20542;-72
2021/08/25 11:01:29;;;;;;;2.60;1.63;;;;;;;;;;5020518;28;20778;-74
2021/08/25 11:03:55;;;;;;;3.07;1.60;;;;;;;;;;5029137;28;20834;-72
2021/08/25 11:06:28;;;;;;;2.50;1.37;;;;;;;;;;5030949;28;20478;-73
2021/08/25 11:08:54;;;;;;;2.57;1.50;;;;;;;;;;5033773;28;20428;-74
2021/08/25 11:11:20;;;;;;;2.47;1.40;;;;;;;;;;5027428;28;20425;-73
2021/08/25 11:13:46;;;;;;;6.30;1.63;;;;;;;;;;5050092;28;20422;-72
2021/08/25 11:16:25;;;;;;;2.07;1.37;;;;;;;;;;5039520;28;20447;-74
2021/08/25 11:18:51;;;;;;;2.00;1.30;;;;;;;;;;5018500;28;21255;-73
2021/08/25 11:21:17;;;;;;;5.00;2.10;;;;;;;;;;5031396;28;20445;-71
2021/08/25 11:23:53;;;;;;;2.53;1.70;;;;;;;;;;5031478;28;20929;-72
2021/08/25 11:26:19;;;;;;;4.50;2.07;;;;;;;;;;5030838;28;20488;-73
2021/08/25 11:28:45;;;;;;;2.70;1.37;;;;;;;;;;5030739;28;20408;-74
2021/08/25 11:31:11;;;;;;;5.10;1.90;;;;;;;;;;5031102;28;20518;-73
2021/08/25 11:33:44;;;;;;;3.17;1.67;;;;;;;;;;5029299;28;20445;-71
2021/08/25 11:36:10;;;;;;;3.47;2.03;;;;;;;;;;5039865;28;20532;-72
2021/08/25 11:38:36;;;;;;;2.63;1.30;;;;;;;;;;5040300;28;20919;-72
2021/08/25 11:41:03;;;;;;;2.70;1.20;;;;;;;;;;5027761;28;20515;-71
2021/08/25 11:43:29;;;;;;;2.10;1.40;;;;;;;;;;5041703;28;20449;-72
2021/08/25 11:45:56;;;;;;;3.03;1.30;;;;;;;;;;5030429;28;20468;-72
2021/08/25 11:48:26;;;;;;;3.93;1.37;;;;;;;;;;5030503;28;20487;-71
2021/08/25 11:50:52;;;;;;;2.07;1.20;;;;;;;;;;5030443;28;20466;-73
2021/08/25 11:53:22;;;;;;;3.43;1.33;;;;;;;;;;5030698;28;20926;-74
2021/08/25 11:55:52;;;;;;;2.60;1.77;;;;;;;;;;5030809;28;20503;-71
2021/08/25 11:58:22;;;;;;;2.10;1.60;;;;;;;;;;5029125;28;20425;-71
2021/08/25 12:00:48;;;;;;;2.43;1.40;;;;;;;;;;5030778;28;20826;-73
2021/08/25 12:03:14;;;;;;;2.30;1.30;;;;;;;;;;5029944;28;20428;-72
2021/08/25 12:05:41;;;;;;;2.20;1.30;;;;;;;;;;5030502;28;20476;-72
2021/08/25 12:08:11;;;;;;;2.07;1.30;;;;;;;;;;5030133;28;20464;-72
2021/08/25 12:10:44;;;;;;;3.70;1.50;;;;;;;;;;5030519;28;20424;-72
2021/08/25 12:13:11;;;;;;;2.40;1.50;;;;;;;;;;5029892;28;20471;-71
2021/08/25 12:15:50;;;;;;;2.20;1.40;;;;;;;;;;5050343;28;20420;-72
2021/08/25 12:18:17;;;;;;;2.63;1.40;;;;;;;;;;5035549;28;20438;-72
2021/08/25 12:20:44;;;;;;;5.23;1.37;;;;;;;;;;5049982;28;20422;-73
2021/08/25 12:23:11;;;;;;;2.83;1.50;;;;;;;;;;5032597;28;20432;-72
2021/08/25 12:25:43;;;;;;;3.90;1.30;;;;;;;;;;5029893;28;20937;-71
2021/08/25 12:28:13;;;;;;;3.43;1.50;;;;;;;;;;5029278;28;20429;-72
2021/08/25 12:30:40;;;;;;;2.27;1.37;;;;;;;;;;5029759;28;20436;-72
2021/08/25 12:33:06;;;;;;;3.00;1.20;;;;;;;;;;5029749;28;20427;-72
2021/08/25 12:35:36;;;;;;;2.57;2.00;;;;;;;;;;5029867;28;20429;-71
2021/08/25 12:38:03;;;;;;;2.37;1.10;;;;;;;;;;5029076;28;20460;-73
2021/08/25 12:40:29;;;;;;;1.93;1.20;;;;;;;;;;5029855;28;20509;-72
2021/08/25 12:42:56;;;;;;;1.93;1.17;;;;;;;;;;5035659;28;20428;-72
2021/08/25 12:45:22;;;;;;;2.30;1.30;;;;;;;;;;5029793;28;20518;-71
2021/08/25 12:47:52;;;;;;;2.53;1.30;;;;;;;;;;5025421;28;20450;-72
2021/08/25 12:50:19;;;;;;;2.93;1.13;;;;;;;;;;5049555;28;20462;-71
2021/08/25 12:52:45;;;;;;;2.40;1.60;;;;;;;;;;5036374;28;20426;-74
2021/08/25 12:55:11;;;;;;;2.83;1.40;;;;;;;;;;5029759;28;20416;-72
2021/08/25 12:57:38;;;;;;;2.17;1.30;;;;;;;;;;5044102;28;20545;-71
2021/08/25 13:00:04;;;;;;;2.57;1.23;;;;;;;;;;5030460;28;20463;-72
2021/08/25 13:02:30;;;;;;;3.80;1.60;;;;;;;;;;5030322;28;20915;-71
2021/08/25 13:04:56;;;;;;;3.50;1.50;;;;;;;;;;5038660;28;20439;-72
2021/08/25 13:07:23;;;;;;;1.83;1.30;;;;;;;;;;5029180;28;20436;-70
2021/08/25 13:09:48;;;;;;;5.03;1.30;;;;;;;;;;5029341;28;20443;-70
2021/08/25 13:12:15;;;;;;;2.10;1.40;;;;;;;;;;5029235;28;20909;-71
2021/08/25 13:14:41;;;;;;;2.13;1.30;;;;;;;;;;5028653;28;20447;-73
2021/08/25 13:17:07;;;;;;;3.10;2.00;;;;;;;;;;5028951;28;20455;-71
2021/08/25 13:19:33;;;;;;;2.40;1.50;;;;;;;;;;5028712;28;20431;-71
2021/08/25 13:21:59;;;;;;;2.50;1.33;;;;;;;;;;5029004;28;20430;-72
2021/08/25 13:24:25;;;;;;;2.77;1.80;;;;;;;;;;5029297;28;20484;-72
2021/08/25 13:26:51;;;;;;;2.57;1.80;;;;;;;;;;5028896;28;20475;-71
2021/08/25 13:29:17;;;;;;;3.80;1.90;;;;;;;;;;5029314;28;20898;-71
2021/08/25 13:31:43;;;;;;;2.30;1.70;;;;;;;;;;5029024;28;20428;-72
2021/08/25 13:34:09;;;;;;;5.47;1.80;;;;;;;;;;5029113;28;20427;-71
2021/08/25 13:36:35;;;;;;;2.77;1.70;;;;;;;;;;5028580;28;20800;-72
2021/08/25 13:39:01;;;;;;;2.10;1.60;;;;;;;;;;5028974;28;20436;-72
2021/08/25 13:41:27;;;;;;;3.70;1.53;;;;;;;;;;5029175;28;20424;-72
2021/08/25 13:43:53;;;;;;;2.30;1.40;;;;;;;;;;5042220;28;20428;-72
2021/08/25 13:46:21;;;;;;;3.30;1.40;;;;;;;;;;5023305;28;20500;-73
2021/08/25 13:48:47;;;;;;;5.80;1.63;;;;;;;;;;5021101;28;20431;-72
2021/08/25 13:51:13;;;;;;;2.47;1.30;;;;;;;;;;5028544;28;20432;-73
2021/08/25 13:53:39;;;;;;;2.67;1.70;;;;;;;;;;5027282;28;20436;-73
2021/08/25 13:56:06;;;;;;;2.83;1.87;;;;;;;;;;5028595;28;20448;-72
2021/08/25 13:58:32;;;;;;;2.57;1.70;;;;;;;;;;5037459;28;20432;-71
2021/08/25 14:00:58;;;;;;;2.30;1.80;;;;;;;;;;5029039;28;21023;-73
2021/08/25 14:03:24;;;;;;;2.20;1.83;;;;;;;;;;5028391;28;20428;-73
2021/08/25 14:05:50;;;;;;;2.30;1.70;;;;;;;;;;5028742;28;20471;-72
2021/08/25 14:08:16;;;;;;;5.10;2.33;;;;;;;;;;5028192;28;20511;-73
2021/08/25 14:10:42;;;;;;;3.63;2.13;;;;;;;;;;5028812;28;20436;-73
2021/08/25 14:13:08;;;;;;;2.80;2.07;;;;;;;;;;5028545;28;20448;-71
2021/08/25 14:15:37;;;;;;;3.73;2.40;;;;;;;;;;5031190;28;20948;-71
2021/08/25 14:18:04;;;;;;;2.33;1.90;;;;;;;;;;5032001;28;20421;-73
2021/08/25 14:20:31;;;;;;;3.43;2.13;;;;;;;;;;5030953;28;20582;-73
2021/08/25 14:22:57;;;;;;;3.53;2.30;;;;;;;;;;5032518;28;20424;-73
2021/08/25 14:25:23;;;;;;;2.93;2.10;;;;;;;;;;5033496;28;20525;-71
2021/08/25 14:27:50;;;;;;;2.57;2.27;;;;;;;;;;5031799;28;20436;-71
2021/08/25 14:30:16;;;;;;;3.00;2.53;;;;;;;;;;5031895;28;21241;-72
2021/08/25 14:32:42;;;;;;;3.20;2.50;;;;;;;;;;5031840;28;20507;-71